createdAt,value
2018-05-02T00:01:39.707Z,4.60
2018-05-02T00:04:08.507Z,4.70
2018-05-02T00:06:36.812Z,4.25
2018-05-02T00:09:06.009Z,4.50
2018-05-02T00:11:35.687Z,4.10
2018-05-02T00:14:04.023Z,4.00
2018-05-02T00:16:32.338Z,4.85
2018-05-02T00:19:00.727Z,4.85
2018-05-02T00:21:29.049Z,4.60
2018-05-02T00:23:57.603Z,4.47
2018-05-02T00:26:26.326Z,4.80
2018-05-02T00:28:54.686Z,4.15
2018-05-02T00:31:23.755Z,4.45
2018-05-02T00:33:52.118Z,4.75
2018-05-02T00:36:33.407Z,4.65
2018-05-02T00:39:01.790Z,4.30
2018-05-02T00:41:30.354Z,5.37
2018-05-02T00:43:59.499Z,4.55
2018-05-02T00:46:29.115Z,5.37
2018-05-02T00:49:17.141Z,5.25
2018-05-02T00:51:46.279Z,4.85
2018-05-02T00:54:14.579Z,5.10
2018-05-02T00:56:42.876Z,5.05
2018-05-02T00:59:11.269Z,5.25
2018-05-02T01:01:40.400Z,5.37
2018-05-02T01:04:08.798Z,5.18
2018-05-02T01:06:37.312Z,4.87
2018-05-02T01:09:05.645Z,4.32
2018-05-02T01:11:33.949Z,4.78
2018-05-02T01:14:02.302Z,4.30
2018-05-02T01:16:30.610Z,4.78
2018-05-02T01:18:58.908Z,4.25
2018-05-02T01:21:27.252Z,4.20
2018-05-02T01:23:55.567Z,4.20
2018-05-02T01:26:23.931Z,3.67
2018-05-02T01:28:52.735Z,3.90
2018-05-02T01:31:21.063Z,3.87
2018-05-02T01:33:49.396Z,4.55
2018-05-02T01:36:17.756Z,4.10
2018-05-02T01:38:46.103Z,4.43
2018-05-02T01:41:14.438Z,4.37
2018-05-02T01:43:42.788Z,4.18
2018-05-02T01:46:11.112Z,4.65
2018-05-02T01:51:39.479Z,4.25
2018-05-02T01:54:07.841Z,3.92
2018-05-02T01:56:36.162Z,4.60
2018-05-02T01:59:04.501Z,3.97
2018-05-02T02:01:32.873Z,4.35
2018-05-02T02:04:01.227Z,4.50
2018-05-02T02:06:29.554Z,4.25
2018-05-02T02:08:58.158Z,4.32
2018-05-02T02:11:26.476Z,4.07
2018-05-02T02:13:54.801Z,3.97
2018-05-02T02:16:23.136Z,4.45
2018-05-02T02:18:51.464Z,4.15
2018-05-02T02:21:19.815Z,4.20
2018-05-02T02:23:48.927Z,5.18
2018-05-02T02:26:17.256Z,3.90
2018-05-02T02:28:46.323Z,3.78
2018-05-02T02:31:14.964Z,4.35
2018-05-02T02:33:43.271Z,4.20
2018-05-02T02:36:11.591Z,4.30
2018-05-02T02:38:39.924Z,3.80
2018-05-02T02:41:08.232Z,4.20
2018-05-02T02:43:36.560Z,4.10
2018-05-02T02:46:04.901Z,3.60
2018-05-02T02:48:33.996Z,4.72
2018-05-02T02:51:03.100Z,3.85
2018-05-02T02:53:31.571Z,4.60
2018-05-02T02:56:00.659Z,4.15
2018-05-02T02:58:29.751Z,4.12
2018-05-02T03:00:58.877Z,4.10
2018-05-02T03:03:27.199Z,4.45
2018-05-02T03:05:55.512Z,4.40
2018-05-02T03:08:24.621Z,4.22
2018-05-02T03:10:52.951Z,4.80
2018-05-02T03:13:21.260Z,4.68
2018-05-02T03:15:50.614Z,4.65
2018-05-02T03:18:18.921Z,4.80
2018-05-02T03:20:47.265Z,5.00
2018-05-02T03:23:15.622Z,5.32
2018-05-02T03:25:43.931Z,5.03
2018-05-02T03:28:12.248Z,5.70
2018-05-02T03:30:40.622Z,5.50
2018-05-02T03:33:08.929Z,5.07
2018-05-02T03:35:37.994Z,6.07
2018-05-02T03:38:06.374Z,6.28
2018-05-02T03:40:34.684Z,6.85
2018-05-02T03:43:02.996Z,6.65
2018-05-02T03:45:31.354Z,6.62
2018-05-02T03:47:59.660Z,7.00
2018-05-02T03:50:27.960Z,7.60
2018-05-02T03:52:56.340Z,7.75
2018-05-02T03:55:25.397Z,6.82
2018-05-02T03:57:53.687Z,8.13
2018-05-02T04:00:39.975Z,6.90
2018-05-02T04:03:25.783Z,7.47
2018-05-02T04:06:10.840Z,7.50
2018-05-02T04:08:39.232Z,7.10
2018-05-02T04:11:07.506Z,6.57
2018-05-02T04:13:35.870Z,7.60
2018-05-02T04:16:04.210Z,7.45
2018-05-02T04:18:32.526Z,7.97
2018-05-02T04:21:01.363Z,7.18
2018-05-02T04:23:30.460Z,7.60
2018-05-02T04:25:58.863Z,7.40
2018-05-02T04:28:27.130Z,6.70
2018-05-02T04:30:56.248Z,7.60
2018-05-02T04:33:24.563Z,7.75
2018-05-02T04:35:52.948Z,8.45
2018-05-02T04:38:21.283Z,6.65
2018-05-02T04:40:49.626Z,7.68
2018-05-02T04:43:18.449Z,7.35
2018-05-02T04:45:46.780Z,7.10
2018-05-02T04:48:15.099Z,7.32
2018-05-02T04:53:18.040Z,7.55
2018-05-02T04:55:46.370Z,7.18
2018-05-02T04:58:15.484Z,6.57
2018-05-02T05:00:43.881Z,6.60
2018-05-02T05:03:12.568Z,7.43
2018-05-02T05:05:40.864Z,6.50
2018-05-02T05:08:09.357Z,6.57
2018-05-02T05:10:37.707Z,7.45
2018-05-02T05:13:06.012Z,6.87
2018-05-02T05:15:34.342Z,6.90
2018-05-02T05:18:02.726Z,7.30
2018-05-02T05:20:31.055Z,6.85
2018-05-02T05:22:59.364Z,6.72
2018-05-02T05:25:28.179Z,6.30
2018-05-02T05:27:56.511Z,6.80
2018-05-02T05:30:24.888Z,6.40
2018-05-02T05:32:53.235Z,6.60
2018-05-02T05:35:21.587Z,7.10
2018-05-02T05:37:49.924Z,6.90
2018-05-02T05:40:18.361Z,6.32
2018-05-02T05:42:46.680Z,7.40
2018-05-02T05:45:15.045Z,7.47
2018-05-02T05:47:43.477Z,7.65
2018-05-02T05:50:11.778Z,7.35
2018-05-02T05:52:40.155Z,6.40
2018-05-02T05:55:08.495Z,7.80
2018-05-02T05:57:37.571Z,5.97
2018-05-02T06:00:05.897Z,6.40
2018-05-02T06:02:34.237Z,7.03
2018-05-02T06:05:02.640Z,7.10
2018-05-02T06:07:30.925Z,6.30
2018-05-02T06:10:00.298Z,6.90
2018-05-02T06:12:28.653Z,6.80
2018-05-02T06:14:57.462Z,7.33
2018-05-02T06:17:26.636Z,7.10
2018-05-02T06:19:54.971Z,6.90
2018-05-02T06:22:24.039Z,7.60
2018-05-02T06:24:52.381Z,7.40
2018-05-02T06:27:20.720Z,6.20
2018-05-02T06:29:49.034Z,8.00
2018-05-02T06:32:17.931Z,7.60
2018-05-02T06:34:46.277Z,7.27
2018-05-02T06:37:14.618Z,6.20
2018-05-02T06:39:42.959Z,6.93
2018-05-02T06:42:11.301Z,6.63
2018-05-02T06:44:40.388Z,5.23
2018-05-02T06:47:09.493Z,5.27
2018-05-02T06:49:38.608Z,5.10
2018-05-02T06:52:06.924Z,5.00
2018-05-02T06:54:36.466Z,5.67
2018-05-02T06:57:04.804Z,5.13
2018-05-02T06:59:33.211Z,5.40
2018-05-02T07:02:01.647Z,5.50
2018-05-02T07:04:29.995Z,5.80
2018-05-02T07:06:58.425Z,5.20
2018-05-02T07:09:26.831Z,5.63
2018-05-02T07:11:55.180Z,5.63
2018-05-02T07:14:23.500Z,6.20
2018-05-02T07:16:52.480Z,6.70
2018-05-02T07:19:20.848Z,6.73
2018-05-02T07:21:49.217Z,7.17
2018-05-02T07:24:17.596Z,6.50
2018-05-02T07:26:46.030Z,6.23
2018-05-02T07:29:15.170Z,6.20
2018-05-02T07:31:43.596Z,6.57
2018-05-02T07:34:12.725Z,5.90
2018-05-02T07:36:41.078Z,6.00
2018-05-02T07:39:09.609Z,6.60
2018-05-02T07:41:37.975Z,5.93
2018-05-02T07:44:06.301Z,6.17
2018-05-02T07:46:34.657Z,5.67
2018-05-02T07:49:02.994Z,5.03
2018-05-02T07:51:31.328Z,4.83
2018-05-02T07:53:59.699Z,5.33
2018-05-02T07:56:28.866Z,5.00
2018-05-02T07:58:57.132Z,5.50
2018-05-02T08:01:25.884Z,5.80
2018-05-02T08:03:54.219Z,6.30
2018-05-02T08:06:22.552Z,6.80
2018-05-02T08:08:51.713Z,6.57
2018-05-02T08:11:20.078Z,6.13
2018-05-02T08:13:48.386Z,6.90
2018-05-02T08:16:16.747Z,5.77
2018-05-02T08:18:45.115Z,6.57
2018-05-02T08:21:13.421Z,7.03
2018-05-02T08:23:42.275Z,7.17
2018-05-02T08:26:10.593Z,7.70
2018-05-02T08:28:38.938Z,7.40
2018-05-02T08:31:07.296Z,7.80
2018-05-02T08:33:35.802Z,7.67
2018-05-02T08:36:04.129Z,8.50
2018-05-02T08:38:32.477Z,8.00
2018-05-02T08:41:00.799Z,7.53
2018-05-02T08:43:29.144Z,7.90
2018-05-02T08:45:57.614Z,7.47
2018-05-02T08:48:25.935Z,8.70
2018-05-02T08:50:55.016Z,8.43
2018-05-02T08:53:23.429Z,9.60
2018-05-02T08:55:51.782Z,7.77
2018-05-02T08:58:20.873Z,8.50
2018-05-02T09:00:49.210Z,9.17
2018-05-02T09:03:17.529Z,8.00
2018-05-02T09:05:45.889Z,7.90
2018-05-02T09:08:14.759Z,7.30
2018-05-02T09:10:43.146Z,6.93
2018-05-02T09:13:11.487Z,7.40
2018-05-02T09:15:39.871Z,7.70
2018-05-02T09:18:09.046Z,8.53
2018-05-02T09:20:37.381Z,7.30
2018-05-02T09:23:05.747Z,7.83
2018-05-02T09:25:34.102Z,7.83
2018-05-02T09:28:02.501Z,8.00
2018-05-02T09:30:31.239Z,9.23
2018-05-02T09:32:59.570Z,7.87
2018-05-02T09:35:27.902Z,8.30
2018-05-02T09:37:57.027Z,8.00
2018-05-02T09:40:25.386Z,8.30
2018-05-02T09:42:54.492Z,8.10
2018-05-02T09:45:23.600Z,7.93
2018-05-02T09:47:51.995Z,8.60
2018-05-02T09:50:20.431Z,8.17
2018-05-02T09:52:49.055Z,8.07
2018-05-02T09:55:17.393Z,9.50
2018-05-02T09:57:45.716Z,9.53
2018-05-02T10:00:14.089Z,9.83
2018-05-02T10:02:42.394Z,9.47
2018-05-02T10:05:10.702Z,9.70
2018-05-02T10:07:39.120Z,9.87
2018-05-02T10:10:07.464Z,8.63
2018-05-02T10:12:36.567Z,9.90
2018-05-02T10:15:06.204Z,10.07
2018-05-02T10:17:34.550Z,10.37
2018-05-02T10:20:02.927Z,10.20
2018-05-02T10:22:31.269Z,9.80
2018-05-02T10:24:59.684Z,10.20
2018-05-02T10:27:28.039Z,11.10
2018-05-02T10:29:56.770Z,9.20
2018-05-02T10:32:25.134Z,9.83
2018-05-02T10:34:53.499Z,8.60
2018-05-02T10:37:21.983Z,8.00
2018-05-02T10:39:50.326Z,7.37
2018-05-02T10:42:18.658Z,7.77
2018-05-02T10:44:47.006Z,6.53
2018-05-02T10:47:15.336Z,7.50
2018-05-02T10:49:44.455Z,7.83
2018-05-02T10:52:12.838Z,7.37
2018-05-02T10:54:41.162Z,7.17
2018-05-02T10:57:09.511Z,7.33
2018-05-02T10:59:39.062Z,7.77
2018-05-02T11:02:07.413Z,8.33
2018-05-02T11:04:35.795Z,7.80
2018-05-02T11:07:04.181Z,7.20
2018-05-02T11:09:33.386Z,7.03
2018-05-02T11:12:01.760Z,7.60
2018-05-02T11:14:30.168Z,6.73
2018-05-02T11:16:59.250Z,7.53
2018-05-02T11:19:27.572Z,6.80
2018-05-02T11:21:57.416Z,6.80
2018-05-02T11:24:25.696Z,8.03
2018-05-02T11:26:54.038Z,7.90
2018-05-02T11:29:22.417Z,8.87
2018-05-02T11:31:50.734Z,7.60
2018-05-02T11:34:19.083Z,6.90
2018-05-02T11:36:47.427Z,7.07
2018-05-02T11:39:15.797Z,6.43
2018-05-02T11:41:44.912Z,7.20
2018-05-02T11:44:13.743Z,7.77
2018-05-02T11:46:42.121Z,7.30
2018-05-02T11:49:10.468Z,7.40
2018-05-02T11:51:38.827Z,7.23
2018-05-02T11:54:08.169Z,7.70
2018-05-02T11:56:36.571Z,7.80
2018-05-02T11:59:04.997Z,8.20
2018-05-02T12:01:33.376Z,7.30
2018-05-02T12:04:01.736Z,6.60
2018-05-02T12:06:30.205Z,6.03
2018-05-02T12:08:58.567Z,7.20
2018-05-02T12:11:26.956Z,7.33
2018-05-02T12:13:55.403Z,7.33
2018-05-02T12:16:23.759Z,7.30
2018-05-02T12:18:52.856Z,6.37
2018-05-02T12:21:21.991Z,6.23
2018-05-02T12:23:50.330Z,7.20
2018-05-02T12:26:18.676Z,8.17
2018-05-02T12:28:47.572Z,7.13
2018-05-02T12:31:15.885Z,7.60
2018-05-02T12:33:44.257Z,7.27
2018-05-02T12:36:13.072Z,6.80
2018-05-02T12:38:41.478Z,7.00
2018-05-02T12:41:09.928Z,7.20
2018-05-02T12:43:38.230Z,7.17
2018-05-02T12:46:06.568Z,7.10
2018-05-02T12:48:34.918Z,6.30
2018-05-02T12:51:03.508Z,6.67
2018-05-02T12:53:31.840Z,6.93
2018-05-02T12:56:00.275Z,6.67
2018-05-02T12:58:28.635Z,7.23
2018-05-02T13:00:57.003Z,6.10
2018-05-02T13:03:25.319Z,6.20
2018-05-02T13:05:54.473Z,6.80
2018-05-02T13:08:22.799Z,6.27
2018-05-02T13:10:51.934Z,6.10
2018-05-02T13:13:20.787Z,5.40
2018-05-02T13:15:49.873Z,6.17
2018-05-02T13:18:18.220Z,5.93
2018-05-02T13:20:47.340Z,6.10
2018-05-02T13:23:15.671Z,6.43
2018-05-02T13:25:44.069Z,5.00
2018-05-02T13:28:12.428Z,5.17
2018-05-02T13:30:40.796Z,5.20
2018-05-02T13:33:09.144Z,5.00
2018-05-02T13:35:38.562Z,6.17
2018-05-02T13:38:06.953Z,5.70
2018-05-02T13:40:35.319Z,5.57
2018-05-02T13:43:03.687Z,4.90
2018-05-02T13:45:32.848Z,6.40
2018-05-02T13:48:01.201Z,4.80
2018-05-02T13:50:29.540Z,4.57
2018-05-02T13:52:58.650Z,5.40
2018-05-02T13:55:27.899Z,4.80
2018-05-02T13:57:56.325Z,6.13
2018-05-02T14:00:25.509Z,4.60
2018-05-02T14:02:54.596Z,5.60
2018-05-02T14:05:22.972Z,5.10
2018-05-02T14:07:51.288Z,5.90
2018-05-02T14:10:19.617Z,5.90
2018-05-02T14:12:48.744Z,5.77
2018-05-02T14:15:17.867Z,5.30
2018-05-02T14:17:46.186Z,5.40
2018-05-02T14:20:15.281Z,5.07
2018-05-02T14:22:43.597Z,6.10
2018-05-02T14:25:12.689Z,5.73
2018-05-02T14:27:41.099Z,5.83
2018-05-02T14:30:09.411Z,6.17
2018-05-02T14:32:37.778Z,5.83
2018-05-02T14:35:06.194Z,6.30
2018-05-02T14:37:34.529Z,6.70
2018-05-02T14:40:02.885Z,6.27
2018-05-02T14:42:32.111Z,6.20
2018-05-02T14:45:00.461Z,5.80
2018-05-02T14:47:29.623Z,5.60
2018-05-02T14:49:57.988Z,5.90
2018-05-02T14:52:26.384Z,5.50
2018-05-02T14:54:55.520Z,5.30
2018-05-02T14:57:23.886Z,6.30
2018-05-02T14:59:52.984Z,6.80
2018-05-02T15:02:22.152Z,6.33
2018-05-02T15:04:50.834Z,6.40
2018-05-02T15:07:19.225Z,5.90
2018-05-02T15:09:47.560Z,5.07
2018-05-02T15:12:16.001Z,4.50
2018-05-02T15:14:45.134Z,5.07
2018-05-02T15:17:13.471Z,5.30
2018-05-02T15:19:41.832Z,5.10
2018-05-02T15:22:10.191Z,4.43
2018-05-02T15:24:38.551Z,5.17
2018-05-02T15:27:07.048Z,5.00
2018-05-02T15:29:35.372Z,4.77
2018-05-02T15:32:04.478Z,3.97
2018-05-02T15:34:33.681Z,3.83
2018-05-02T15:37:02.010Z,4.90
2018-05-02T15:39:30.409Z,4.33
2018-05-02T15:41:58.800Z,3.90
2018-05-02T15:44:27.129Z,4.67
2018-05-02T15:46:55.469Z,3.47
2018-05-02T15:49:24.488Z,3.80
2018-05-02T15:51:52.774Z,3.77
2018-05-02T15:54:21.138Z,6.60
2018-05-02T15:56:49.504Z,6.47
2018-05-02T15:59:18.639Z,6.90
2018-05-02T16:01:46.981Z,6.80
2018-05-02T16:04:16.147Z,7.20
2018-05-02T16:06:44.504Z,8.07
2018-05-02T16:09:12.846Z,6.90
2018-05-02T16:11:41.716Z,7.80
2018-05-02T16:14:10.028Z,8.47
2018-05-02T16:16:38.398Z,7.10
2018-05-02T16:19:06.795Z,7.80
2018-05-02T16:21:35.132Z,6.53
2018-05-02T16:24:03.479Z,7.50
2018-05-02T16:26:31.814Z,7.10
2018-05-02T16:29:00.941Z,6.07
2018-05-02T16:31:29.260Z,6.57
2018-05-02T16:33:57.920Z,8.20
2018-05-02T16:36:26.259Z,7.33
2018-05-02T16:38:54.596Z,6.60
2018-05-02T16:41:22.935Z,6.40
2018-05-02T16:43:51.260Z,7.47
2018-05-02T16:46:19.680Z,7.20
2018-05-02T16:48:48.055Z,7.77
2018-05-02T16:51:16.406Z,7.17
2018-05-02T16:53:44.715Z,7.77
2018-05-02T16:56:13.574Z,6.63
2018-05-02T16:58:41.937Z,7.27
2018-05-02T17:01:10.311Z,6.80
2018-05-02T17:03:38.666Z,6.47
2018-05-02T17:06:07.748Z,6.47
2018-05-02T17:08:36.082Z,7.70
2018-05-02T17:11:05.249Z,8.37
2018-05-02T17:13:33.615Z,7.37
2018-05-02T17:16:02.121Z,8.13
2018-05-02T17:18:30.759Z,6.97
2018-05-02T17:20:59.206Z,7.00
2018-05-02T17:23:27.539Z,7.13
2018-05-02T17:25:55.890Z,7.60
2018-05-02T17:28:24.984Z,7.20
2018-05-02T17:30:54.070Z,8.13
2018-05-02T17:33:23.193Z,7.37
2018-05-02T17:35:51.592Z,9.03
2018-05-02T17:38:19.934Z,8.10
2018-05-02T17:40:49.354Z,7.20
2018-05-02T17:43:17.677Z,7.30
2018-05-02T17:45:46.023Z,7.50
2018-05-02T17:48:14.403Z,6.83
2018-05-02T17:50:43.509Z,6.80
2018-05-02T17:53:11.836Z,8.07
2018-05-02T17:55:40.960Z,6.73
2018-05-02T17:58:09.301Z,6.47
2018-05-02T18:00:37.688Z,7.10
2018-05-02T18:03:06.964Z,7.23
2018-05-02T18:05:35.329Z,7.20
2018-05-02T18:08:03.676Z,7.23
2018-05-02T18:10:32.116Z,6.83
2018-05-02T18:13:00.423Z,7.53
2018-05-02T18:15:29.525Z,6.27
2018-05-02T18:17:57.890Z,7.00
2018-05-02T18:20:26.991Z,7.60
2018-05-02T18:22:56.128Z,7.30
2018-05-02T18:25:24.854Z,7.13
2018-05-02T18:27:53.244Z,7.57
2018-05-02T18:30:22.508Z,8.07
2018-05-02T18:32:50.893Z,8.00
2018-05-02T18:35:19.217Z,7.53
2018-05-02T18:37:47.516Z,8.53
2018-05-02T18:40:15.855Z,8.00
2018-05-02T18:42:44.204Z,8.03
2018-05-02T18:45:12.536Z,7.23
2018-05-02T18:47:41.223Z,8.50
2018-05-02T18:50:09.570Z,8.00
2018-05-02T18:52:37.873Z,8.60
2018-05-02T18:55:07.016Z,8.07
2018-05-02T18:57:35.330Z,8.43
2018-05-02T19:00:03.771Z,9.40
2018-05-02T19:02:32.106Z,8.10
2018-05-02T19:05:01.175Z,7.90
2018-05-02T19:07:29.475Z,8.13
2018-05-02T19:09:58.151Z,8.10
2018-05-02T19:12:26.486Z,7.13
2018-05-02T19:14:54.804Z,7.70
2018-05-02T19:17:23.147Z,6.87
2018-05-02T19:19:57.120Z,7.37
2018-05-02T19:22:26.305Z,6.93
2018-05-02T19:25:00.358Z,7.90
2018-05-02T19:27:29.298Z,6.63
2018-05-02T19:29:58.393Z,7.33
2018-05-02T19:32:32.169Z,6.80
2018-05-02T19:35:00.538Z,7.93
2018-05-02T19:37:28.871Z,6.53
2018-05-02T19:40:02.844Z,7.00
2018-05-02T19:42:36.588Z,6.30
2018-05-02T19:45:05.476Z,6.80
2018-05-02T19:47:33.755Z,6.70
2018-05-02T19:50:02.917Z,6.83
2018-05-02T19:52:36.865Z,6.90
2018-05-02T19:55:05.328Z,6.63
2018-05-02T19:57:33.690Z,6.57
2018-05-02T20:00:02.120Z,6.70
2018-05-02T20:02:36.754Z,6.80
2018-05-02T20:05:05.468Z,6.73
2018-05-02T20:07:39.328Z,5.70
2018-05-02T20:10:13.259Z,5.90
2018-05-02T20:12:47.045Z,6.00
2018-05-02T20:15:16.195Z,5.80
2018-05-02T20:17:44.534Z,5.60
2018-05-02T20:20:13.661Z,5.53
2018-05-02T20:22:42.337Z,5.07
2018-05-02T20:25:10.693Z,6.13
2018-05-02T20:27:39.058Z,6.30
2018-05-02T20:30:07.431Z,5.40
2018-05-02T20:32:35.797Z,6.23
2018-05-02T20:35:04.143Z,7.23
2018-05-02T20:37:32.513Z,7.20
2018-05-02T20:40:00.827Z,6.90
2018-05-02T20:42:29.198Z,6.50
2018-05-02T20:44:58.036Z,5.30
2018-05-02T20:47:26.376Z,5.83
2018-05-02T20:49:54.733Z,6.00
2018-05-02T20:52:23.103Z,5.40
2018-05-02T20:54:51.496Z,6.07
2018-05-02T20:57:19.764Z,6.23
2018-05-02T20:59:48.148Z,6.60
2018-05-02T21:02:16.516Z,5.13
2018-05-02T21:04:44.886Z,5.17
2018-05-02T21:07:13.615Z,5.30
2018-05-02T21:09:42.016Z,5.10
2018-05-02T21:12:10.331Z,4.80
2018-05-02T21:14:38.707Z,5.17
2018-05-02T21:17:07.031Z,5.60
2018-05-02T21:19:35.561Z,4.60
2018-05-02T21:22:03.887Z,6.30
2018-05-02T21:24:33.032Z,5.30
2018-05-02T21:27:01.421Z,5.23
2018-05-02T21:29:30.345Z,5.60
2018-05-02T21:31:58.853Z,5.53
2018-05-02T21:34:28.030Z,5.60
2018-05-02T21:36:56.471Z,5.40
2018-05-02T21:39:24.783Z,5.37
2018-05-02T21:41:53.159Z,5.13
2018-05-02T21:44:21.542Z,5.17
2018-05-02T21:46:49.856Z,5.47
2018-05-02T21:49:18.221Z,4.87
2018-05-02T21:51:47.097Z,4.80
2018-05-02T21:54:15.419Z,5.23
2018-05-02T21:56:44.529Z,5.50
2018-05-02T21:59:13.673Z,5.40
2018-05-02T22:01:42.006Z,5.10
2018-05-02T22:04:10.351Z,5.30
2018-05-02T22:06:38.682Z,5.40
2018-05-02T22:09:07.066Z,5.07
2018-05-02T22:11:36.200Z,5.67
2018-05-02T22:14:04.639Z,5.83
2018-05-02T22:16:32.958Z,5.53
2018-05-02T22:19:01.311Z,5.00
2018-05-02T22:21:29.712Z,5.47
2018-05-02T22:23:58.061Z,5.50
2018-05-02T22:26:26.412Z,5.80
2018-05-02T22:28:54.790Z,5.43
2018-05-02T22:31:23.884Z,6.13
2018-05-02T22:33:52.961Z,6.17
2018-05-02T22:36:21.495Z,6.70
2018-05-02T22:38:49.802Z,6.43
2018-05-02T22:41:18.117Z,5.37
2018-05-02T22:43:46.499Z,6.10
2018-05-02T22:46:14.838Z,6.03
2018-05-02T22:48:43.265Z,6.00
2018-05-02T22:51:11.600Z,6.10
2018-05-02T22:53:39.915Z,6.47
2018-05-02T22:56:08.261Z,6.03
2018-05-02T22:58:37.267Z,5.70
2018-05-02T23:01:05.610Z,7.40
2018-05-02T23:03:33.995Z,6.73
2018-05-02T23:06:02.407Z,6.97
2018-05-02T23:08:31.531Z,6.47
2018-05-02T23:10:59.861Z,6.17
2018-05-02T23:13:28.238Z,6.20
2018-05-02T23:15:56.537Z,5.23
2018-05-02T23:18:24.970Z,6.43
2018-05-02T23:20:53.672Z,5.70
2018-05-02T23:23:21.992Z,6.50
2018-05-02T23:25:50.303Z,6.40
2018-05-02T23:28:18.668Z,6.30
2018-05-02T23:30:47.744Z,6.43
2018-05-02T23:33:16.048Z,6.33
2018-05-02T23:35:44.427Z,5.90
2018-05-02T23:38:12.758Z,6.47
2018-05-02T23:40:41.109Z,6.23
2018-05-02T23:43:09.534Z,6.50
2018-05-02T23:45:37.866Z,5.90
2018-05-02T23:48:06.226Z,6.30
2018-05-02T23:50:34.623Z,5.90
2018-05-02T23:53:02.978Z,6.70
2018-05-02T23:55:31.311Z,6.30
2018-05-02T23:57:59.755Z,6.20
